Terminal Aerodrome Forecast
Issued by NWS

Home | Current Version | Previous Version | Graphics & Text | Print | Product List | Glossary On
Versions: 1 2 3 4 5 6 7 8 9 10 11 12 13 14 15 16 17
648
FTUS41 KCLE 292327
TAFFDY
TAF
KFDY 292327Z 3000/3024 17010KT P6SM OVC100
     FM300600 17008KT P6SM SCT030 OVC050
      TEMPO 3008/3012 5SM -SHRA BR OVC020
     FM301200 17007KT P6SM VCSH OVC015
     FM301800 24010KT P6SM SCT025=

USA.gov is the U.S. government's official web portal to all federal, state and local government web resources and services.